Portada
METAR-TAF:

METAR-TAF

Aeropuertos :

Upington, Sudáfrica

latitud: 28-24S, longitud: 021-16E, altitud: 839 m

Observación

El informe se hizo hace 36 minutos, a las 08:00 UTC
Viento 13 kt del norte
Temperatura 23°C
Humedad 53%
Presión 1019 hPa
Visibilidad 10 km o más
sin nubes por debajo de 1500 m y sin presencia de cumulonimbus.

METAR: FAUP 160800Z 36013KT CAVOK 23/13 Q1019 NOSIG

Hora: 10:36 (08:36 UTC)

Pronóstico

El informe se hizo hace 4 horas y 36 minutos, a las 04:00 UTC
Pronóstico válido del 16 a las 06 UTC al 17 a las 06 UTC
Viento 10 kt del norte-noreste
Visibilidad 10 km o más
sin nubes por debajo de 1500 m y sin presencia de cumulonimbus.
Probabilidad 30% :
Temporalmente
del 16 a las 15 UTC al 16 a las 21 UTC
Escasas nubes a una altura de 4500 ft, Cumulonimbus.

TAF: FAUP 160400Z 1606/1706 02010KT CAVOK TX30/1613Z TN15/1704Z PROB30 TEMPO 1615/1621 FEW045CB

Observaciones y pronósticos meteorológicos de más de 4000 aeropuertos (mensajes METAR y TAF).

Los puntos amarillos y rojos representan las estaciones disponibles.

Ponga el ratón en el punto deseado para ver el nombre de la estación.

Haga clic para ver las observaciones y los pronósticos meteorológicos.

Para cambiar el mapa : haga clic en los botones verdes con una cruz de color negro para hacer un zoom, en el botón verde con un guión para alejar o en las flechas verdes para mapas adyacentes.


METAR-TAF: